sensor_id;sensor_type;location;lat;lon;timestamp;pressure;altitude;pressure_sealevel;temperature;humidity
63554;BME280;49699;48.072;7.800;2023-03-26T00:00:25;99034.69;;;10.03;66.92
63554;BME280;49699;48.072;7.800;2023-03-26T00:02:50;99036.50;;;10.03;66.34
63554;BME280;49699;48.072;7.800;2023-03-26T00:05:16;99041.03;;;9.99;66.71
63554;BME280;49699;48.072;7.800;2023-03-26T00:07:41;99035.94;;;9.98;66.52
63554;BME280;49699;48.072;7.800;2023-03-26T00:10:07;99042.06;;;9.97;66.71
63554;BME280;49699;48.072;7.800;2023-03-26T00:12:32;99038.72;;;9.95;66.53
63554;BME280;49699;48.072;7.800;2023-03-26T00:14:57;99040.47;;;9.94;66.54
63554;BME280;49699;48.072;7.800;2023-03-26T00:17:23;99035.44;;;9.91;66.54
63554;BME280;49699;48.072;7.800;2023-03-26T00:19:48;99034.53;;;9.92;66.19
63554;BME280;49699;48.072;7.800;2023-03-26T00:22:14;99031.09;;;9.92;66.05
63554;BME280;49699;48.072;7.800;2023-03-26T00:24:41;99037.97;;;9.93;66.37
63554;BME280;49699;48.072;7.800;2023-03-26T00:27:09;99038.81;;;9.93;65.80
63554;BME280;49699;48.072;7.800;2023-03-26T00:29:35;99043.16;;;9.93;65.40
63554;BME280;49699;48.072;7.800;2023-03-26T00:32:00;99044.84;;;9.94;65.43
63554;BME280;49699;48.072;7.800;2023-03-26T00:34:26;99029.16;;;9.95;65.59
63554;BME280;49699;48.072;7.800;2023-03-26T00:36:51;99029.97;;;9.96;65.36
63554;BME280;49699;48.072;7.800;2023-03-26T00:39:20;99035.19;;;9.96;64.93
63554;BME280;49699;48.072;7.800;2023-03-26T00:41:49;99028.22;;;9.96;65.12
63554;BME280;49699;48.072;7.800;2023-03-26T00:44:18;99021.25;;;9.97;65.27
63554;BME280;49699;48.072;7.800;2023-03-26T00:46:43;99020.50;;;9.95;64.95
63554;BME280;49699;48.072;7.800;2023-03-26T00:49:09;99024.88;;;9.94;65.01
63554;BME280;49699;48.072;7.800;2023-03-26T00:51:34;99014.56;;;9.93;65.00
63554;BME280;49699;48.072;7.800;2023-03-26T00:54:01;99007.59;;;9.93;64.92
63554;BME280;49699;48.072;7.800;2023-03-26T00:56:26;99013.72;;;9.92;64.94
63554;BME280;49699;48.072;7.800;2023-03-26T00:58:52;99015.59;;;9.90;65.14
63554;BME280;49699;48.072;7.800;2023-03-26T01:01:18;99017.25;;;9.91;64.83
63554;BME280;49699;48.072;7.800;2023-03-26T01:03:45;98998.22;;;9.91;64.60
63554;BME280;49699;48.072;7.800;2023-03-26T01:06:29;98999.06;;;9.91;64.16
63554;BME280;49699;48.072;7.800;2023-03-26T01:09:10;98993.88;;;9.91;64.55
63554;BME280;49699;48.072;7.800;2023-03-26T01:11:36;98994.69;;;9.92;63.90
63554;BME280;49699;48.072;7.800;2023-03-26T01:14:07;98992.94;;;9.92;63.77
63554;BME280;49699;48.072;7.800;2023-03-26T01:16:35;98979.00;;;9.93;63.66
63554;BME280;49699;48.072;7.800;2023-03-26T01:19:03;98978.09;;;9.94;63.55
63554;BME280;49699;48.072;7.800;2023-03-26T01:21:30;98972.78;;;9.96;63.33
63554;BME280;49699;48.072;7.800;2023-03-26T01:29:01;98945.97;;;9.95;62.73
63554;BME280;49699;48.072;7.800;2023-03-26T01:31:36;98936.50;;;9.94;63.15
63554;BME280;49699;48.072;7.800;2023-03-26T01:34:14;98929.63;;;9.93;62.69
63554;BME280;49699;48.072;7.800;2023-03-26T01:36:46;98910.59;;;9.93;62.56
63554;BME280;49699;48.072;7.800;2023-03-26T01:39:16;98908.09;;;9.91;62.28
63554;BME280;49699;48.072;7.800;2023-03-26T01:41:47;98904.75;;;9.89;62.46
63554;BME280;49699;48.072;7.800;2023-03-26T01:44:33;98885.72;;;9.89;62.57
63554;BME280;49699;48.072;7.800;2023-03-26T01:46:59;98886.75;;;9.86;62.70
63554;BME280;49699;48.072;7.800;2023-03-26T01:49:28;98873.97;;;9.83;62.57
63554;BME280;49699;48.072;7.800;2023-03-26T01:51:54;98860.22;;;9.81;62.52
63554;BME280;49699;48.072;7.800;2023-03-26T01:54:21;98855.97;;;9.80;62.23
63554;BME280;49699;48.072;7.800;2023-03-26T02:01:57;98851.25;;;9.72;62.64
63554;BME280;49699;48.072;7.800;2023-03-26T02:07:20;98846.03;;;9.72;62.21
63554;BME280;49699;48.072;7.800;2023-03-26T02:09:48;98844.28;;;9.73;62.33
63554;BME280;49699;48.072;7.800;2023-03-26T02:12:16;98834.81;;;9.72;62.27
63554;BME280;49699;48.072;7.800;2023-03-26T02:14:42;98828.69;;;9.73;62.35
63554;BME280;49699;48.072;7.800;2023-03-26T02:17:08;98821.72;;;9.73;62.10
63554;BME280;49699;48.072;7.800;2023-03-26T02:19:35;98826.91;;;9.73;62.40
63554;BME280;49699;48.072;7.800;2023-03-26T02:22:00;98815.69;;;9.73;62.04
63554;BME280;49699;48.072;7.800;2023-03-26T02:24:28;98812.34;;;9.71;62.09
63554;BME280;49699;48.072;7.800;2023-03-26T02:26:55;98808.81;;;9.72;61.94
63554;BME280;49699;48.072;7.800;2023-03-26T02:29:22;98794.06;;;9.72;61.88
63554;BME280;49699;48.072;7.800;2023-03-26T02:31:48;98787.09;;;9.73;61.94
63554;BME280;49699;48.072;7.800;2023-03-26T02:34:14;98779.13;;;9.76;62.06
63554;BME280;49699;48.072;7.800;2023-03-26T02:36:45;98768.81;;;9.74;61.95
63554;BME280;49699;48.072;7.800;2023-03-26T02:39:11;98775.06;;;9.72;61.89
63554;BME280;49699;48.072;7.800;2023-03-26T02:41:38;98776.91;;;9.70;62.30
63554;BME280;49699;48.072;7.800;2023-03-26T02:44:07;98773.56;;;9.68;62.40
63554;BME280;49699;48.072;7.800;2023-03-26T02:46:58;98772.97;;;9.64;62.14
63554;BME280;49699;48.072;7.800;2023-03-26T02:49:42;98772.22;;;9.62;62.19
63554;BME280;49699;48.072;7.800;2023-03-26T02:52:10;98749.03;;;9.59;62.56
63554;BME280;49699;48.072;7.800;2023-03-26T02:54:35;98746.63;;;9.56;62.71
63554;BME280;49699;48.072;7.800;2023-03-26T02:57:07;98737.34;;;9.52;62.46
63554;BME280;49699;48.072;7.800;2023-03-26T02:59:52;98744.41;;;9.50;62.97
63554;BME280;49699;48.072;7.800;2023-03-26T03:02:35;98751.50;;;9.48;63.24
63554;BME280;49699;48.072;7.800;2023-03-26T03:05:22;98741.22;;;9.47;62.86
63554;BME280;49699;48.072;7.800;2023-03-26T03:07:57;98737.78;;;9.46;62.98
63554;BME280;49699;48.072;7.800;2023-03-26T03:10:26;98731.75;;;9.46;62.86
63554;BME280;49699;48.072;7.800;2023-03-26T03:13:18;98730.91;;;9.45;63.09
63554;BME280;49699;48.072;7.800;2023-03-26T03:15:44;98725.63;;;9.47;62.98
63554;BME280;49699;48.072;7.800;2023-03-26T03:18:09;98715.97;;;9.49;62.77
63554;BME280;49699;48.072;7.800;2023-03-26T03:20:35;98698.63;;;9.49;62.71
63554;BME280;49699;48.072;7.800;2023-03-26T03:23:00;98689.16;;;9.48;62.93
63554;BME280;49699;48.072;7.800;2023-03-26T03:25:27;98662.44;;;9.46;62.92
63554;BME280;49699;48.072;7.800;2023-03-26T03:27:52;98661.81;;;9.43;63.35
63554;BME280;49699;48.072;7.800;2023-03-26T03:30:18;98659.50;;;9.38;63.12
63554;BME280;49699;48.072;7.800;2023-03-26T03:32:43;98671.84;;;9.34;63.38
63554;BME280;49699;48.072;7.800;2023-03-26T03:35:09;98672.06;;;9.31;63.59
63554;BME280;49699;48.072;7.800;2023-03-26T03:37:35;98664.47;;;9.28;64.13
63554;BME280;49699;48.072;7.800;2023-03-26T03:40:01;98676.72;;;9.26;64.13
63554;BME280;49699;48.072;7.800;2023-03-26T03:42:29;98671.81;;;9.22;64.20
63554;BME280;49699;48.072;7.800;2023-03-26T03:44:58;98650.31;;;9.20;64.55
63554;BME280;49699;48.072;7.800;2023-03-26T03:47:42;98654.03;;;9.16;64.74
63554;BME280;49699;48.072;7.800;2023-03-26T03:50:08;98650.06;;;9.10;65.26
63554;BME280;49699;48.072;7.800;2023-03-26T03:52:36;98653.69;;;9.08;65.35
63554;BME280;49699;48.072;7.800;2023-03-26T03:55:01;98650.56;;;9.02;65.29
63554;BME280;49699;48.072;7.800;2023-03-26T03:57:40;98644.63;;;9.00;65.97
63554;BME280;49699;48.072;7.800;2023-03-26T04:00:10;98639.44;;;9.00;65.83
63554;BME280;49699;48.072;7.800;2023-03-26T04:02:44;98633.50;;;8.98;66.25
63554;BME280;49699;48.072;7.800;2023-03-26T04:05:10;98633.72;;;8.95;66.36
63554;BME280;49699;48.072;7.800;2023-03-26T04:07:41;98622.69;;;8.92;66.89
63554;BME280;49699;48.072;7.800;2023-03-26T04:10:16;98616.88;;;8.88;67.18
63554;BME280;49699;48.072;7.800;2023-03-26T04:13:00;98604.19;;;8.84;67.80
63554;BME280;49699;48.072;7.800;2023-03-26T04:15:48;98599.50;;;8.76;68.17
63554;BME280;49699;48.072;7.800;2023-03-26T04:18:14;98604.22;;;8.69;68.50
63554;BME280;49699;48.072;7.800;2023-03-26T04:20:43;98594.13;;;8.65;68.60
63554;BME280;49699;48.072;7.800;2023-03-26T04:23:17;98583.94;;;8.62;69.16
63554;BME280;49699;48.072;7.800;2023-03-26T04:25:46;98574.72;;;8.58;69.67
63554;BME280;49699;48.072;7.800;2023-03-26T04:28:21;98574.91;;;8.55;70.02
63554;BME280;49699;48.072;7.800;2023-03-26T04:30:58;98569.91;;;8.52;70.09
63554;BME280;49699;48.072;7.800;2023-03-26T04:33:35;98559.63;;;8.50;70.12
63554;BME280;49699;48.072;7.800;2023-03-26T04:36:02;98556.28;;;8.48;70.59
63554;BME280;49699;48.072;7.800;2023-03-26T04:38:30;98557.22;;;8.47;71.11
63554;BME280;49699;48.072;7.800;2023-03-26T04:40:58;98552.13;;;8.46;71.05
63554;BME280;49699;48.072;7.800;2023-03-26T04:43:40;98542.69;;;8.45;71.29
63554;BME280;49699;48.072;7.800;2023-03-26T04:46:37;98529.81;;;8.43;71.67
63554;BME280;49699;48.072;7.800;2023-03-26T04:49:14;98532.41;;;8.43;71.87
63554;BME280;49699;48.072;7.800;2023-03-26T04:51:39;98535.94;;;8.42;72.20
63554;BME280;49699;48.072;7.800;2023-03-26T04:54:32;98542.06;;;8.41;72.39
63554;BME280;49699;48.072;7.800;2023-03-26T04:57:03;98534.16;;;8.43;72.34
63554;BME280;49699;48.072;7.800;2023-03-26T04:59:49;98519.44;;;8.43;72.40
63554;BME280;49699;48.072;7.800;2023-03-26T05:02:15;98515.81;;;8.46;72.28
63554;BME280;49699;48.072;7.800;2023-03-26T05:04:51;98506.28;;;8.46;72.37
63554;BME280;49699;48.072;7.800;2023-03-26T05:07:19;98516.56;;;8.48;72.23
63554;BME280;49699;48.072;7.800;2023-03-26T05:09:50;98498.41;;;8.48;72.39
63554;BME280;49699;48.072;7.800;2023-03-26T05:12:21;98495.72;;;8.49;72.83
63554;BME280;49699;48.072;7.800;2023-03-26T05:15:01;98498.31;;;8.49;72.53
63554;BME280;49699;48.072;7.800;2023-03-26T05:17:39;98501.75;;;8.50;72.41
63554;BME280;49699;48.072;7.800;2023-03-26T05:20:19;98502.47;;;8.52;72.63
63554;BME280;49699;48.072;7.800;2023-03-26T05:22:45;98496.81;;;8.59;72.23
63554;BME280;49699;48.072;7.800;2023-03-26T05:25:20;98486.28;;;8.75;71.43
63554;BME280;49699;48.072;7.800;2023-03-26T05:27:46;98489.63;;;8.90;70.76
63554;BME280;49699;48.072;7.800;2023-03-26T05:30:14;98482.78;;;9.01;70.33
63554;BME280;49699;48.072;7.800;2023-03-26T05:32:42;98484.69;;;9.12;69.84
63554;BME280;49699;48.072;7.800;2023-03-26T05:35:09;98470.97;;;9.23;69.16
63554;BME280;49699;48.072;7.800;2023-03-26T05:37:36;98459.25;;;9.30;68.83
63554;BME280;49699;48.072;7.800;2023-03-26T05:40:05;98443.13;;;9.37;68.54
63554;BME280;49699;48.072;7.800;2023-03-26T05:43:01;98430.88;;;9.39;68.75
63554;BME280;49699;48.072;7.800;2023-03-26T05:45:36;98435.88;;;9.43;68.94
63554;BME280;49699;48.072;7.800;2023-03-26T05:48:23;98416.53;;;9.47;68.90
63554;BME280;49699;48.072;7.800;2023-03-26T05:50:53;98406.75;;;9.50;68.48
63554;BME280;49699;48.072;7.800;2023-03-26T05:53:19;98399.69;;;9.52;68.63
63554;BME280;49699;48.072;7.800;2023-03-26T05:56:03;98411.53;;;9.56;68.37
63554;BME280;49699;48.072;7.800;2023-03-26T05:58:47;98407.91;;;9.59;68.40
63554;BME280;49699;48.072;7.800;2023-03-26T06:01:45;98398.03;;;9.64;68.24
63554;BME280;49699;48.072;7.800;2023-03-26T06:04:13;98384.81;;;9.67;68.59
63554;BME280;49699;48.072;7.800;2023-03-26T06:06:46;98382.09;;;9.68;68.46
63554;BME280;49699;48.072;7.800;2023-03-26T06:09:12;98370.75;;;9.69;68.39
63554;BME280;49699;48.072;7.800;2023-03-26T06:11:38;98359.53;;;9.69;68.48
63554;BME280;49699;48.072;7.800;2023-03-26T06:14:05;98367.22;;;9.70;68.69
63554;BME280;49699;48.072;7.800;2023-03-26T06:16:31;98360.16;;;9.72;68.48
63554;BME280;49699;48.072;7.800;2023-03-26T06:19:17;98354.75;;;9.75;68.40
63554;BME280;49699;48.072;7.800;2023-03-26T06:21:49;98350.16;;;9.79;68.90
63554;BME280;49699;48.072;7.800;2023-03-26T06:24:18;98359.63;;;9.80;68.51
63554;BME280;49699;48.072;7.800;2023-03-26T06:26:56;98355.03;;;9.84;68.31
63554;BME280;49699;48.072;7.800;2023-03-26T06:29:39;98354.78;;;9.87;68.31
63554;BME280;49699;48.072;7.800;2023-03-26T06:32:18;98347.59;;;9.90;68.30
63554;BME280;49699;48.072;7.800;2023-03-26T06:34:48;98360.28;;;9.95;68.19
63554;BME280;49699;48.072;7.800;2023-03-26T06:37:14;98358.41;;;9.97;68.22
63554;BME280;49699;48.072;7.800;2023-03-26T06:39:41;98347.91;;;9.98;68.57
63554;BME280;49699;48.072;7.800;2023-03-26T06:42:12;98348.72;;;9.99;68.79
63554;BME280;49699;48.072;7.800;2023-03-26T06:44:54;98341.75;;;9.99;68.66
63554;BME280;49699;48.072;7.800;2023-03-26T06:47:32;98347.78;;;10.00;68.73
63554;BME280;49699;48.072;7.800;2023-03-26T06:50:12;98340.72;;;10.02;68.56
63554;BME280;49699;48.072;7.800;2023-03-26T06:52:54;98342.38;;;10.03;68.64
63554;BME280;49699;48.072;7.800;2023-03-26T06:55:35;98336.34;;;10.02;68.93
63554;BME280;49699;48.072;7.800;2023-03-26T06:58:18;98336.56;;;9.99;69.52
63554;BME280;49699;48.072;7.800;2023-03-26T07:01:02;98315.06;;;9.97;69.89
63554;BME280;49699;48.072;7.800;2023-03-26T07:03:46;98337.09;;;9.92;70.50
63554;BME280;49699;48.072;7.800;2023-03-26T07:06:31;98313.22;;;9.87;70.97
63554;BME280;49699;48.072;7.800;2023-03-26T07:09:25;98339.56;;;9.82;71.45
63554;BME280;49699;48.072;7.800;2023-03-26T07:12:03;98333.75;;;9.79;71.96
63554;BME280;49699;48.072;7.800;2023-03-26T07:14:54;98325.22;;;9.77;71.51
63554;BME280;49699;48.072;7.800;2023-03-26T07:17:38;98327.00;;;9.76;71.54
63554;BME280;49699;48.072;7.800;2023-03-26T07:20:16;98317.53;;;9.75;72.11
63554;BME280;49699;48.072;7.800;2023-03-26T07:22:42;98315.75;;;9.75;71.92
63554;BME280;49699;48.072;7.800;2023-03-26T07:25:14;98315.66;;;9.77;72.27
63554;BME280;49699;48.072;7.800;2023-03-26T07:28:34;98300.78;;;9.79;72.11
63554;BME280;49699;48.072;7.800;2023-03-26T07:31:05;98316.38;;;9.79;72.49
63554;BME280;49699;48.072;7.800;2023-03-26T07:33:49;98318.25;;;9.77;72.70
63554;BME280;49699;48.072;7.800;2023-03-26T07:36:33;98329.47;;;9.78;72.80
63554;BME280;49699;48.072;7.800;2023-03-26T07:39:31;98331.97;;;9.79;72.88
63554;BME280;49699;48.072;7.800;2023-03-26T07:42:32;98338.72;;;9.82;72.66
63554;BME280;49699;48.072;7.800;2023-03-26T07:45:38;98342.16;;;9.82;73.73
63554;BME280;49699;48.072;7.800;2023-03-26T07:48:38;98354.31;;;9.82;73.66
63554;BME280;49699;48.072;7.800;2023-03-26T07:51:23;98348.41;;;9.80;73.68
63554;BME280;49699;48.072;7.800;2023-03-26T07:54:04;98346.63;;;9.80;74.22
63554;BME280;49699;48.072;7.800;2023-03-26T07:56:44;98335.50;;;9.78;74.21
63554;BME280;49699;48.072;7.800;2023-03-26T07:59:39;98344.25;;;9.77;74.52
63554;BME280;49699;48.072;7.800;2023-03-26T08:05:04;98356.41;;;9.77;75.85
63554;BME280;49699;48.072;7.800;2023-03-26T08:13:23;98340.91;;;9.75;75.97
63554;BME280;49699;48.072;7.800;2023-03-26T08:18:31;98332.81;;;9.80;75.71
63554;BME280;49699;48.072;7.800;2023-03-26T08:21:07;98348.28;;;9.81;74.65
63554;BME280;49699;48.072;7.800;2023-03-26T08:23:41;98335.78;;;9.86;74.45
63554;BME280;49699;48.072;7.800;2023-03-26T08:29:09;98350.56;;;10.44;73.07
63554;BME280;49699;48.072;7.800;2023-03-26T08:31:38;98355.75;;;10.79;71.66
63554;BME280;49699;48.072;7.800;2023-03-26T08:34:05;98358.97;;;11.05;70.88
63554;BME280;49699;48.072;7.800;2023-03-26T08:36:30;98353.19;;;11.24;70.32
63554;BME280;49699;48.072;7.800;2023-03-26T08:38:56;98357.56;;;11.35;69.44
63554;BME280;49699;48.072;7.800;2023-03-26T08:51:52;98323.50;;;12.96;63.18
63554;BME280;49699;48.072;7.800;2023-03-26T08:59:45;98340.16;;;13.66;60.81
63554;BME280;49699;48.072;7.800;2023-03-26T09:05:13;98346.69;;;14.00;59.87
63554;BME280;49699;48.072;7.800;2023-03-26T09:10:19;98340.25;;;14.43;58.80
63554;BME280;49699;48.072;7.800;2023-03-26T09:15:30;98341.25;;;14.98;56.83
63554;BME280;49699;48.072;7.800;2023-03-26T09:36:52;98308.44;;;14.28;55.59
63554;BME280;49699;48.072;7.800;2023-03-26T09:39:21;98306.34;;;14.22;54.21
63554;BME280;49699;48.072;7.800;2023-03-26T09:44:38;98320.09;;;13.85;53.77
63554;BME280;49699;48.072;7.800;2023-03-26T10:00:14;98337.59;;;13.35;52.82
63554;BME280;49699;48.072;7.800;2023-03-26T10:12:51;98342.16;;;15.98;41.72
63554;BME280;49699;48.072;7.800;2023-03-26T10:15:24;98342.13;;;16.26;39.86
63554;BME280;49699;48.072;7.800;2023-03-26T10:23:23;98361.16;;;16.46;46.33
63554;BME280;49699;48.072;7.800;2023-03-26T10:41:04;98337.53;;;17.49;40.40
63554;BME280;49699;48.072;7.800;2023-03-26T10:51:51;98344.22;;;17.44;36.54
63554;BME280;49699;48.072;7.800;2023-03-26T10:56:48;98335.25;;;16.69;36.30
63554;BME280;49699;48.072;7.800;2023-03-26T10:59:15;98335.13;;;16.96;36.64
63554;BME280;49699;48.072;7.800;2023-03-26T11:04:17;98323.00;;;17.37;35.03
63554;BME280;49699;48.072;7.800;2023-03-26T11:06:58;98329.41;;;17.34;35.62
63554;BME280;49699;48.072;7.800;2023-03-26T11:09:39;98322.81;;;17.30;35.67
63554;BME280;49699;48.072;7.800;2023-03-26T11:12:24;98327.25;;;17.04;36.60
63554;BME280;49699;48.072;7.800;2023-03-26T11:17:23;98316.50;;;17.15;36.50
63554;BME280;49699;48.072;7.800;2023-03-26T11:20:00;98311.34;;;17.06;36.96
63554;BME280;49699;48.072;7.800;2023-03-26T11:22:30;98305.97;;;17.15;36.98
63554;BME280;49699;48.072;7.800;2023-03-26T11:30:22;98297.41;;;17.47;36.69
63554;BME280;49699;48.072;7.800;2023-03-26T11:32:54;98303.56;;;17.64;36.46
63554;BME280;49699;48.072;7.800;2023-03-26T11:35:31;98308.13;;;17.62;36.05
63554;BME280;49699;48.072;7.800;2023-03-26T11:38:00;98292.69;;;17.17;35.91
63554;BME280;49699;48.072;7.800;2023-03-26T11:40:28;98298.25;;;16.62;37.10
63554;BME280;49699;48.072;7.800;2023-03-26T11:42:56;98302.75;;;16.26;37.38
63554;BME280;49699;48.072;7.800;2023-03-26T11:45:24;98294.78;;;16.00;37.95
63554;BME280;49699;48.072;7.800;2023-03-26T11:47:51;98293.66;;;15.85;38.18
63554;BME280;49699;48.072;7.800;2023-03-26T11:50:18;98303.59;;;15.63;38.06
63554;BME280;49699;48.072;7.800;2023-03-26T11:52:46;98300.44;;;15.33;38.58
63554;BME280;49699;48.072;7.800;2023-03-26T11:55:12;98324.72;;;14.98;38.89
63554;BME280;49699;48.072;7.800;2023-03-26T11:57:37;98323.81;;;14.70;39.48
63554;BME280;49699;48.072;7.800;2023-03-26T12:00:07;98329.78;;;14.43;40.16
63554;BME280;49699;48.072;7.800;2023-03-26T12:02:41;98331.69;;;14.21;40.37
63554;BME280;49699;48.072;7.800;2023-03-26T12:05:11;98341.88;;;14.05;41.29
63554;BME280;49699;48.072;7.800;2023-03-26T12:07:43;98342.13;;;13.83;41.94
63554;BME280;49699;48.072;7.800;2023-03-26T12:10:19;98329.31;;;13.61;43.12
63554;BME280;49699;48.072;7.800;2023-03-26T12:12:46;98317.97;;;13.41;44.10
63554;BME280;49699;48.072;7.800;2023-03-26T12:15:15;98314.72;;;13.28;44.94
63554;BME280;49699;48.072;7.800;2023-03-26T12:17:43;98323.38;;;13.18;45.51
63554;BME280;49699;48.072;7.800;2023-03-26T12:22:46;98322.88;;;13.04;46.09
63554;BME280;49699;48.072;7.800;2023-03-26T12:27:47;98299.16;;;12.86;46.31
63554;BME280;49699;48.072;7.800;2023-03-26T12:30:26;98289.47;;;12.77;46.62
63554;BME280;49699;48.072;7.800;2023-03-26T12:32:56;98306.19;;;12.65;46.91
63554;BME280;49699;48.072;7.800;2023-03-26T12:35:24;98298.69;;;12.50;47.17
63554;BME280;49699;48.072;7.800;2023-03-26T12:37:51;98295.75;;;12.44;47.53
63554;BME280;49699;48.072;7.800;2023-03-26T12:42:57;98282.00;;;12.42;47.51
63554;BME280;49699;48.072;7.800;2023-03-26T12:45:44;98268.94;;;12.42;47.85
63554;BME280;49699;48.072;7.800;2023-03-26T12:48:08;98269.72;;;12.33;48.63
63554;BME280;49699;48.072;7.800;2023-03-26T12:50:44;98285.06;;;12.26;48.23
63554;BME280;49699;48.072;7.800;2023-03-26T12:55:53;98266.47;;;12.20;48.90
63554;BME280;49699;48.072;7.800;2023-03-26T13:01:07;98255.91;;;12.21;48.55
63554;BME280;49699;48.072;7.800;2023-03-26T13:03:37;98246.75;;;12.27;47.81
63554;BME280;49699;48.072;7.800;2023-03-26T13:08:50;98250.19;;;12.48;47.57
63554;BME280;49699;48.072;7.800;2023-03-26T13:19:20;98248.97;;;12.31;49.03
63554;BME280;49699;48.072;7.800;2023-03-26T13:29:19;98218.13;;;12.67;49.98
63554;BME280;49699;48.072;7.800;2023-03-26T13:40:02;98198.00;;;12.88;51.21
63554;BME280;49699;48.072;7.800;2023-03-26T13:42:41;98188.09;;;12.92;51.03
63554;BME280;49699;48.072;7.800;2023-03-26T13:47:57;98171.91;;;12.88;50.96
63554;BME280;49699;48.072;7.800;2023-03-26T13:50:28;98180.66;;;12.77;51.62
63554;BME280;49699;48.072;7.800;2023-03-26T13:57:59;98334.13;;;11.12;56.78
63554;BME280;49699;48.072;7.800;2023-03-26T14:00:31;98323.94;;;9.58;62.03
63554;BME280;49699;48.072;7.800;2023-03-26T14:03:03;98349.28;;;8.80;67.46
63554;BME280;49699;48.072;7.800;2023-03-26T14:05:33;98371.53;;;8.45;69.90
63554;BME280;49699;48.072;7.800;2023-03-26T14:08:09;98355.22;;;8.30;71.38
63554;BME280;49699;48.072;7.800;2023-03-26T14:10:39;98350.84;;;8.18;71.27
63554;BME280;49699;48.072;7.800;2023-03-26T14:15:33;98369.66;;;8.07;71.34
63554;BME280;49699;48.072;7.800;2023-03-26T14:35:59;98351.56;;;9.23;66.48
63554;BME280;49699;48.072;7.800;2023-03-26T14:38:47;98362.84;;;9.34;65.84
63554;BME280;49699;48.072;7.800;2023-03-26T14:41:18;98368.25;;;9.44;65.53
63554;BME280;49699;48.072;7.800;2023-03-26T14:52:16;98367.66;;;10.25;64.94
63554;BME280;49699;48.072;7.800;2023-03-26T14:54:40;98359.72;;;10.61;63.98
63554;BME280;49699;48.072;7.800;2023-03-26T15:23:52;98368.19;;;12.20;59.99
63554;BME280;49699;48.072;7.800;2023-03-26T15:26:37;98354.41;;;11.97;59.66
63554;BME280;49699;48.072;7.800;2023-03-26T15:52:07;98351.50;;;10.32;62.45
63554;BME280;49699;48.072;7.800;2023-03-26T15:54:52;98347.63;;;10.14;62.93
63554;BME280;49699;48.072;7.800;2023-03-26T15:57:39;98354.88;;;9.98;63.72
63554;BME280;49699;48.072;7.800;2023-03-26T16:16:32;98388.91;;;9.46;65.12
63554;BME280;49699;48.072;7.800;2023-03-26T16:18:38;98402.72;;;9.46;65.46
63554;BME280;49699;48.072;7.800;2023-03-26T16:33:46;98395.59;;;9.24;64.80
63554;BME280;49699;48.072;7.800;2023-03-26T16:38:53;98391.84;;;9.16;64.49
63554;BME280;49699;48.072;7.800;2023-03-26T16:43:52;98371.59;;;9.08;64.04
63554;BME280;49699;48.072;7.800;2023-03-26T16:46:27;98380.63;;;9.02;63.91
63554;BME280;49699;48.072;7.800;2023-03-26T16:57:09;98383.22;;;9.02;64.04
63554;BME280;49699;48.072;7.800;2023-03-26T17:02:43;98374.50;;;9.03;63.85
63554;BME280;49699;48.072;7.800;2023-03-26T17:04:50;98384.78;;;9.05;63.45
63554;BME280;49699;48.072;7.800;2023-03-26T17:07:29;98389.97;;;9.05;63.76
63554;BME280;49699;48.072;7.800;2023-03-26T17:10:08;98391.00;;;9.02;63.48
63554;BME280;49699;48.072;7.800;2023-03-26T17:12:42;98381.47;;;9.03;64.32
63554;BME280;49699;48.072;7.800;2023-03-26T17:15:16;98391.13;;;9.01;64.61
63554;BME280;49699;48.072;7.800;2023-03-26T17:28:13;98402.63;;;8.97;65.80
63554;BME280;49699;48.072;7.800;2023-03-26T17:30:48;98422.88;;;8.92;66.18
63554;BME280;49699;48.072;7.800;2023-03-26T17:41:03;98425.97;;;8.72;67.21
63554;BME280;49699;48.072;7.800;2023-03-26T17:46:03;98428.13;;;8.65;67.63
63554;BME280;49699;48.072;7.800;2023-03-26T17:48:32;98422.22;;;8.63;67.49
63554;BME280;49699;48.072;7.800;2023-03-26T17:51:26;98425.72;;;8.62;67.86
63554;BME280;49699;48.072;7.800;2023-03-26T17:53:47;98430.19;;;8.60;68.38
63554;BME280;49699;48.072;7.800;2023-03-26T17:56:17;98424.38;;;8.56;68.04
63554;BME280;49699;48.072;7.800;2023-03-26T17:58:46;98438.28;;;8.55;68.53
63554;BME280;49699;48.072;7.800;2023-03-26T18:01:28;98433.09;;;8.55;68.53
63554;BME280;49699;48.072;7.800;2023-03-26T18:04:00;98421.06;;;8.54;69.01
63554;BME280;49699;48.072;7.800;2023-03-26T18:14:17;98423.66;;;8.54;68.96
63554;BME280;49699;48.072;7.800;2023-03-26T18:16:50;98421.06;;;8.54;69.05
63554;BME280;49699;48.072;7.800;2023-03-26T18:19:17;98403.00;;;8.53;69.27
63554;BME280;49699;48.072;7.800;2023-03-26T18:21:47;98416.06;;;8.51;69.55
63554;BME280;49699;48.072;7.800;2023-03-26T18:24:29;98416.16;;;8.50;69.51
63554;BME280;49699;48.072;7.800;2023-03-26T18:27:02;98412.84;;;8.48;69.79
63554;BME280;49699;48.072;7.800;2023-03-26T18:29:29;98414.69;;;8.46;69.63
63554;BME280;49699;48.072;7.800;2023-03-26T18:31:56;98417.50;;;8.43;70.00
63554;BME280;49699;48.072;7.800;2023-03-26T18:34:23;98421.13;;;8.40;70.03
63554;BME280;49699;48.072;7.800;2023-03-26T18:37:04;98417.91;;;8.37;70.04
63554;BME280;49699;48.072;7.800;2023-03-26T18:39:55;98416.25;;;8.35;69.86
63554;BME280;49699;48.072;7.800;2023-03-26T18:42:21;98412.09;;;8.33;70.11
63554;BME280;49699;48.072;7.800;2023-03-26T18:44:47;98412.91;;;8.33;70.35
63554;BME280;49699;48.072;7.800;2023-03-26T18:47:14;98409.66;;;8.30;70.45
63554;BME280;49699;48.072;7.800;2023-03-26T18:49:40;98398.63;;;8.26;70.44
63554;BME280;49699;48.072;7.800;2023-03-26T18:52:08;98397.81;;;8.26;70.29
63554;BME280;49699;48.072;7.800;2023-03-26T18:54:35;98390.97;;;8.25;70.36
63554;BME280;49699;48.072;7.800;2023-03-26T18:57:07;98391.91;;;8.24;70.45
63554;BME280;49699;48.072;7.800;2023-03-26T18:59:34;98392.00;;;8.22;70.50
63554;BME280;49699;48.072;7.800;2023-03-26T19:02:02;98392.22;;;8.19;70.65
63554;BME280;49699;48.072;7.800;2023-03-26T19:04:29;98386.28;;;8.17;70.65
63554;BME280;49699;48.072;7.800;2023-03-26T19:06:57;98381.28;;;8.14;70.61
63554;BME280;49699;48.072;7.800;2023-03-26T19:09:23;98385.66;;;8.14;70.86
63554;BME280;49699;48.072;7.800;2023-03-26T19:11:49;98384.72;;;8.15;70.91